sensor_id;sensor_type;location;lat;lon;timestamp;P1;durP1;ratioP1;P2;durP2;ratioP2
77078;SDS011;66004;55.096;38.760;2023-08-21T00:00:11;8.23;;;4.45;;
77078;SDS011;66004;55.096;38.760;2023-08-21T00:02:38;8.82;;;4.65;;
77078;SDS011;66004;55.096;38.760;2023-08-21T00:05:04;10.90;;;5.88;;
77078;SDS011;66004;55.096;38.760;2023-08-21T00:07:30;8.82;;;6.00;;
77078;SDS011;66004;55.096;38.760;2023-08-21T00:09:55;9.35;;;5.97;;
77078;SDS011;66004;55.096;38.760;2023-08-21T00:12:20;11.48;;;6.85;;
77078;SDS011;66004;55.096;38.760;2023-08-21T00:14:46;11.90;;;6.95;;
77078;SDS011;66004;55.096;38.760;2023-08-21T00:17:11;12.27;;;6.25;;
77078;SDS011;66004;55.096;38.760;2023-08-21T00:19:37;10.75;;;5.90;;
77078;SDS011;66004;55.096;38.760;2023-08-21T00:22:02;12.10;;;5.97;;
77078;SDS011;66004;55.096;38.760;2023-08-21T00:24:28;10.10;;;5.90;;
77078;SDS011;66004;55.096;38.760;2023-08-21T00:26:53;8.95;;;5.95;;
77078;SDS011;66004;55.096;38.760;2023-08-21T00:29:19;13.77;;;6.90;;
77078;SDS011;66004;55.096;38.760;2023-08-21T00:31:44;11.90;;;6.00;;
77078;SDS011;66004;55.096;38.760;2023-08-21T00:34:10;11.15;;;6.85;;
77078;SDS011;66004;55.096;38.760;2023-08-21T00:36:35;12.55;;;6.35;;
77078;SDS011;66004;55.096;38.760;2023-08-21T00:39:01;11.18;;;6.45;;
77078;SDS011;66004;55.096;38.760;2023-08-21T00:41:26;10.43;;;6.22;;
77078;SDS011;66004;55.096;38.760;2023-08-21T00:43:52;18.98;;;6.55;;
77078;SDS011;66004;55.096;38.760;2023-08-21T00:46:17;13.82;;;6.78;;
77078;SDS011;66004;55.096;38.760;2023-08-21T00:48:43;10.80;;;6.57;;
77078;SDS011;66004;55.096;38.760;2023-08-21T00:51:09;8.90;;;5.95;;
77078;SDS011;66004;55.096;38.760;2023-08-21T00:53:37;12.80;;;6.13;;
77078;SDS011;66004;55.096;38.760;2023-08-21T00:56:03;10.88;;;6.38;;
77078;SDS011;66004;55.096;38.760;2023-08-21T00:58:29;10.35;;;6.72;;
77078;SDS011;66004;55.096;38.760;2023-08-21T01:00:55;10.27;;;6.20;;
77078;SDS011;66004;55.096;38.760;2023-08-21T01:03:20;10.05;;;6.20;;
77078;SDS011;66004;55.096;38.760;2023-08-21T01:05:46;10.85;;;5.28;;
77078;SDS011;66004;55.096;38.760;2023-08-21T01:08:18;8.95;;;5.45;;
77078;SDS011;66004;55.096;38.760;2023-08-21T01:16:04;7.47;;;4.28;;
77078;SDS011;66004;55.096;38.760;2023-08-21T01:18:32;5.78;;;3.70;;
77078;SDS011;66004;55.096;38.760;2023-08-21T01:21:01;8.23;;;3.35;;
77078;SDS011;66004;55.096;38.760;2023-08-21T01:23:37;11.32;;;3.95;;
77078;SDS011;66004;55.096;38.760;2023-08-21T01:26:04;4.93;;;3.15;;
77078;SDS011;66004;55.096;38.760;2023-08-21T01:28:32;4.63;;;3.22;;
77078;SDS011;66004;55.096;38.760;2023-08-21T01:31:45;6.22;;;3.60;;
77078;SDS011;66004;55.096;38.760;2023-08-21T01:33:54;7.00;;;3.25;;
77078;SDS011;66004;55.096;38.760;2023-08-21T01:36:23;5.28;;;3.08;;
77078;SDS011;66004;55.096;38.760;2023-08-21T01:38:50;5.97;;;3.13;;
77078;SDS011;66004;55.096;38.760;2023-08-21T01:41:16;4.63;;;2.83;;
77078;SDS011;66004;55.096;38.760;2023-08-21T01:43:41;4.53;;;3.08;;
77078;SDS011;66004;55.096;38.760;2023-08-21T01:46:07;5.10;;;3.10;;
77078;SDS011;66004;55.096;38.760;2023-08-21T01:48:33;7.30;;;3.20;;
77078;SDS011;66004;55.096;38.760;2023-08-21T01:51:00;5.10;;;2.72;;
77078;SDS011;66004;55.096;38.760;2023-08-21T01:53:27;5.93;;;2.53;;
77078;SDS011;66004;55.096;38.760;2023-08-21T01:55:53;4.60;;;2.70;;
77078;SDS011;66004;55.096;38.760;2023-08-21T01:58:18;4.22;;;2.60;;
77078;SDS011;66004;55.096;38.760;2023-08-21T02:00:47;4.13;;;2.22;;
77078;SDS011;66004;55.096;38.760;2023-08-21T02:03:12;4.85;;;2.67;;
77078;SDS011;66004;55.096;38.760;2023-08-21T02:05:38;4.70;;;2.28;;
77078;SDS011;66004;55.096;38.760;2023-08-21T02:08:08;4.97;;;2.22;;
77078;SDS011;66004;55.096;38.760;2023-08-21T02:10:37;4.07;;;2.20;;
77078;SDS011;66004;55.096;38.760;2023-08-21T02:13:02;3.72;;;2.22;;
77078;SDS011;66004;55.096;38.760;2023-08-21T02:15:28;3.40;;;1.55;;
77078;SDS011;66004;55.096;38.760;2023-08-21T02:17:53;3.40;;;1.85;;
77078;SDS011;66004;55.096;38.760;2023-08-21T02:20:19;3.03;;;1.85;;
77078;SDS011;66004;55.096;38.760;2023-08-21T02:22:45;4.25;;;2.03;;
77078;SDS011;66004;55.096;38.760;2023-08-21T02:25:10;3.40;;;1.60;;
77078;SDS011;66004;55.096;38.760;2023-08-21T02:27:36;4.15;;;1.85;;
77078;SDS011;66004;55.096;38.760;2023-08-21T02:30:01;3.78;;;1.60;;
77078;SDS011;66004;55.096;38.760;2023-08-21T02:32:28;4.47;;;1.55;;
77078;SDS011;66004;55.096;38.760;2023-08-21T02:34:53;4.50;;;1.80;;
77078;SDS011;66004;55.096;38.760;2023-08-21T02:37:19;2.80;;;1.63;;
77078;SDS011;66004;55.096;38.760;2023-08-21T02:39:44;3.50;;;1.63;;
77078;SDS011;66004;55.096;38.760;2023-08-21T02:42:10;2.38;;;1.40;;
77078;SDS011;66004;55.096;38.760;2023-08-21T02:44:36;7.72;;;2.05;;
77078;SDS011;66004;55.096;38.760;2023-08-21T02:47:01;2.85;;;1.33;;
77078;SDS011;66004;55.096;38.760;2023-08-21T02:49:26;3.55;;;1.80;;
77078;SDS011;66004;55.096;38.760;2023-08-21T02:51:52;4.00;;;1.58;;
77078;SDS011;66004;55.096;38.760;2023-08-21T02:54:17;9.50;;;2.65;;
77078;SDS011;66004;55.096;38.760;2023-08-21T02:56:43;4.53;;;2.10;;
77078;SDS011;66004;55.096;38.760;2023-08-21T02:59:08;5.22;;;2.00;;
77078;SDS011;66004;55.096;38.760;2023-08-21T03:01:34;4.55;;;2.30;;
77078;SDS011;66004;55.096;38.760;2023-08-21T03:04:00;4.20;;;2.30;;
77078;SDS011;66004;55.096;38.760;2023-08-21T03:06:26;5.32;;;2.53;;
77078;SDS011;66004;55.096;38.760;2023-08-21T03:08:52;3.05;;;1.98;;
77078;SDS011;66004;55.096;38.760;2023-08-21T03:11:17;5.53;;;2.45;;
77078;SDS011;66004;55.096;38.760;2023-08-21T03:13:43;9.15;;;2.58;;
77078;SDS011;66004;55.096;38.760;2023-08-21T03:16:08;4.80;;;1.83;;
77078;SDS011;66004;55.096;38.760;2023-08-21T03:18:45;3.95;;;1.70;;
77078;SDS011;66004;55.096;38.760;2023-08-21T03:21:20;3.55;;;1.73;;
77078;SDS011;66004;55.096;38.760;2023-08-21T03:23:49;3.72;;;1.52;;
77078;SDS011;66004;55.096;38.760;2023-08-21T03:26:17;3.42;;;1.40;;
77078;SDS011;66004;55.096;38.760;2023-08-21T03:28:42;5.75;;;1.60;;
77078;SDS011;66004;55.096;38.760;2023-08-21T03:31:08;5.35;;;1.48;;
77078;SDS011;66004;55.096;38.760;2023-08-21T03:33:33;2.88;;;1.58;;
77078;SDS011;66004;55.096;38.760;2023-08-21T03:35:59;4.05;;;1.67;;
77078;SDS011;66004;55.096;38.760;2023-08-21T03:38:24;4.32;;;1.75;;
77078;SDS011;66004;55.096;38.760;2023-08-21T03:40:50;4.78;;;1.50;;
77078;SDS011;66004;55.096;38.760;2023-08-21T03:43:15;6.00;;;1.40;;
77078;SDS011;66004;55.096;38.760;2023-08-21T03:45:40;3.50;;;1.30;;
77078;SDS011;66004;55.096;38.760;2023-08-21T03:48:06;3.13;;;1.27;;
77078;SDS011;66004;55.096;38.760;2023-08-21T03:50:31;3.63;;;1.02;;
77078;SDS011;66004;55.096;38.760;2023-08-21T03:52:57;1.70;;;1.10;;
77078;SDS011;66004;55.096;38.760;2023-08-21T03:55:22;5.40;;;2.10;;
77078;SDS011;66004;55.096;38.760;2023-08-21T03:57:48;3.80;;;2.40;;
77078;SDS011;66004;55.096;38.760;2023-08-21T04:00:13;5.25;;;2.60;;
77078;SDS011;66004;55.096;38.760;2023-08-21T04:02:40;4.32;;;2.70;;
77078;SDS011;66004;55.096;38.760;2023-08-21T04:05:05;5.50;;;2.65;;
77078;SDS011;66004;55.096;38.760;2023-08-21T04:07:31;6.55;;;2.45;;
77078;SDS011;66004;55.096;38.760;2023-08-21T04:09:57;4.43;;;2.60;;
77078;SDS011;66004;55.096;38.760;2023-08-21T04:12:22;4.43;;;2.22;;
77078;SDS011;66004;55.096;38.760;2023-08-21T04:14:48;4.07;;;2.30;;
77078;SDS011;66004;55.096;38.760;2023-08-21T04:17:13;3.60;;;2.40;;
77078;SDS011;66004;55.096;38.760;2023-08-21T04:19:39;4.40;;;2.30;;
77078;SDS011;66004;55.096;38.760;2023-08-21T04:22:06;4.55;;;2.80;;
77078;SDS011;66004;55.096;38.760;2023-08-21T04:24:31;10.40;;;2.80;;
77078;SDS011;66004;55.096;38.760;2023-08-21T04:26:57;7.70;;;2.67;;
77078;SDS011;66004;55.096;38.760;2023-08-21T04:29:23;6.32;;;2.30;;
77078;SDS011;66004;55.096;38.760;2023-08-21T04:31:48;3.55;;;2.28;;
77078;SDS011;66004;55.096;38.760;2023-08-21T04:34:14;4.03;;;2.38;;
77078;SDS011;66004;55.096;38.760;2023-08-21T04:36:39;5.95;;;2.30;;
77078;SDS011;66004;55.096;38.760;2023-08-21T04:39:05;3.92;;;1.90;;
77078;SDS011;66004;55.096;38.760;2023-08-21T04:41:30;5.30;;;2.03;;
77078;SDS011;66004;55.096;38.760;2023-08-21T04:43:56;4.20;;;1.92;;
77078;SDS011;66004;55.096;38.760;2023-08-21T04:46:21;2.55;;;1.80;;
77078;SDS011;66004;55.096;38.760;2023-08-21T04:48:47;3.60;;;2.05;;
77078;SDS011;66004;55.096;38.760;2023-08-21T04:51:12;3.70;;;1.92;;
77078;SDS011;66004;55.096;38.760;2023-08-21T04:53:38;3.53;;;2.05;;
77078;SDS011;66004;55.096;38.760;2023-08-21T04:56:03;4.40;;;2.15;;
77078;SDS011;66004;55.096;38.760;2023-08-21T04:58:29;4.68;;;2.22;;
77078;SDS011;66004;55.096;38.760;2023-08-21T05:00:55;4.90;;;1.80;;
77078;SDS011;66004;55.096;38.760;2023-08-21T05:03:20;3.55;;;1.30;;
77078;SDS011;66004;55.096;38.760;2023-08-21T05:05:52;3.00;;;1.20;;
77078;SDS011;66004;55.096;38.760;2023-08-21T05:08:21;2.53;;;1.00;;
77078;SDS011;66004;55.096;38.760;2023-08-21T05:10:56;2.92;;;0.90;;
77078;SDS011;66004;55.096;38.760;2023-08-21T05:13:22;2.65;;;0.95;;
77078;SDS011;66004;55.096;38.760;2023-08-21T05:15:54;1.10;;;0.80;;
77078;SDS011;66004;55.096;38.760;2023-08-21T05:18:21;2.83;;;1.20;;
77078;SDS011;66004;55.096;38.760;2023-08-21T05:20:48;3.83;;;1.48;;
77078;SDS011;66004;55.096;38.760;2023-08-21T05:23:14;6.47;;;3.45;;
77078;SDS011;66004;55.096;38.760;2023-08-21T05:25:40;2.95;;;1.10;;
77078;SDS011;66004;55.096;38.760;2023-08-21T05:28:06;9.52;;;3.03;;
77078;SDS011;66004;55.096;38.760;2023-08-21T05:30:32;4.60;;;1.30;;
77078;SDS011;66004;55.096;38.760;2023-08-21T05:32:57;3.15;;;1.08;;
77078;SDS011;66004;55.096;38.760;2023-08-21T05:35:23;2.10;;;1.20;;
77078;SDS011;66004;55.096;38.760;2023-08-21T05:37:48;2.88;;;1.48;;
77078;SDS011;66004;55.096;38.760;2023-08-21T05:40:14;2.25;;;1.17;;
77078;SDS011;66004;55.096;38.760;2023-08-21T05:42:39;1.85;;;1.08;;
77078;SDS011;66004;55.096;38.760;2023-08-21T05:45:05;2.17;;;1.02;;
77078;SDS011;66004;55.096;38.760;2023-08-21T05:47:31;3.17;;;1.20;;
77078;SDS011;66004;55.096;38.760;2023-08-21T05:49:57;1.73;;;1.00;;
77078;SDS011;66004;55.096;38.760;2023-08-21T05:52:22;1.77;;;1.02;;
77078;SDS011;66004;55.096;38.760;2023-08-21T05:54:48;4.78;;;1.90;;
77078;SDS011;66004;55.096;38.760;2023-08-21T07:26:31;4.35;;;1.35;;
77078;SDS011;66004;55.096;38.760;2023-08-21T07:28:56;1.30;;;0.98;;
77078;SDS011;66004;55.096;38.760;2023-08-21T07:31:22;2.03;;;1.10;;
77078;SDS011;66004;55.096;38.760;2023-08-21T07:33:48;2.10;;;1.13;;
77078;SDS011;66004;55.096;38.760;2023-08-21T07:36:14;4.03;;;1.25;;
77078;SDS011;66004;55.096;38.760;2023-08-21T07:38:42;3.53;;;1.10;;
77078;SDS011;66004;55.096;38.760;2023-08-21T07:41:09;1.02;;;0.73;;
77078;SDS011;66004;55.096;38.760;2023-08-21T07:43:36;2.33;;;1.00;;
77078;SDS011;66004;55.096;38.760;2023-08-21T07:46:06;1.77;;;0.90;;
77078;SDS011;66004;55.096;38.760;2023-08-21T07:48:32;3.80;;;1.23;;
77078;SDS011;66004;55.096;38.760;2023-08-21T07:50:58;2.10;;;1.20;;
77078;SDS011;66004;55.096;38.760;2023-08-21T07:53:24;2.20;;;1.10;;
77078;SDS011;66004;55.096;38.760;2023-08-21T07:55:50;1.33;;;0.90;;
77078;SDS011;66004;55.096;38.760;2023-08-21T07:58:16;1.40;;;1.00;;
77078;SDS011;66004;55.096;38.760;2023-08-21T08:00:42;1.55;;;1.20;;
77078;SDS011;66004;55.096;38.760;2023-08-21T08:03:08;4.95;;;1.15;;
77078;SDS011;66004;55.096;38.760;2023-08-21T08:05:34;3.67;;;1.02;;
77078;SDS011;66004;55.096;38.760;2023-08-21T08:08:00;2.97;;;1.70;;
77078;SDS011;66004;55.096;38.760;2023-08-21T08:10:40;2.10;;;1.20;;
77078;SDS011;66004;55.096;38.760;2023-08-21T08:13:07;5.78;;;1.08;;
77078;SDS011;66004;55.096;38.760;2023-08-21T08:15:32;2.75;;;0.88;;
77078;SDS011;66004;55.096;38.760;2023-08-21T08:18:00;8.00;;;1.55;;
77078;SDS011;66004;55.096;38.760;2023-08-21T08:20:25;1.63;;;1.13;;
77078;SDS011;66004;55.096;38.760;2023-08-21T08:22:51;2.10;;;0.98;;
77078;SDS011;66004;55.096;38.760;2023-08-21T08:25:16;2.97;;;1.10;;
77078;SDS011;66004;55.096;38.760;2023-08-21T08:27:43;1.77;;;1.00;;
77078;SDS011;66004;55.096;38.760;2023-08-21T08:30:09;3.10;;;1.35;;
77078;SDS011;66004;55.096;38.760;2023-08-21T08:32:35;3.33;;;1.08;;
77078;SDS011;66004;55.096;38.760;2023-08-21T08:35:01;4.00;;;1.00;;
77078;SDS011;66004;55.096;38.760;2023-08-21T08:37:26;2.33;;;1.20;;
77078;SDS011;66004;55.096;38.760;2023-08-21T08:39:52;2.20;;;1.00;;
77078;SDS011;66004;55.096;38.760;2023-08-21T08:42:17;2.95;;;1.00;;
77078;SDS011;66004;55.096;38.760;2023-08-21T08:44:43;2.92;;;0.90;;
77078;SDS011;66004;55.096;38.760;2023-08-21T08:47:09;3.38;;;1.00;;
77078;SDS011;66004;55.096;38.760;2023-08-21T08:49:36;2.95;;;1.15;;
77078;SDS011;66004;55.096;38.760;2023-08-21T08:52:02;1.98;;;0.90;;
77078;SDS011;66004;55.096;38.760;2023-08-21T08:54:29;4.25;;;0.77;;
77078;SDS011;66004;55.096;38.760;2023-08-21T08:56:55;3.88;;;1.00;;
77078;SDS011;66004;55.096;38.760;2023-08-21T08:59:21;2.30;;;0.90;;
77078;SDS011;66004;55.096;38.760;2023-08-21T09:01:47;2.72;;;0.85;;
77078;SDS011;66004;55.096;38.760;2023-08-21T09:04:13;1.27;;;0.88;;
77078;SDS011;66004;55.096;38.760;2023-08-21T09:06:38;4.95;;;1.10;;
77078;SDS011;66004;55.096;38.760;2023-08-21T09:09:04;4.55;;;1.05;;
77078;SDS011;66004;55.096;38.760;2023-08-21T09:11:32;6.20;;;1.20;;
77078;SDS011;66004;55.096;38.760;2023-08-21T09:13:58;6.10;;;1.10;;
77078;SDS011;66004;55.096;38.760;2023-08-21T09:16:24;3.50;;;1.75;;
77078;SDS011;66004;55.096;38.760;2023-08-21T09:18:51;1.42;;;1.00;;
77078;SDS011;66004;55.096;38.760;2023-08-21T09:21:19;1.63;;;0.82;;
77078;SDS011;66004;55.096;38.760;2023-08-21T09:23:46;3.28;;;1.35;;
77078;SDS011;66004;55.096;38.760;2023-08-21T09:26:22;1.42;;;0.77;;
77078;SDS011;66004;55.096;38.760;2023-08-21T09:28:49;4.75;;;1.25;;
77078;SDS011;66004;55.096;38.760;2023-08-21T09:31:21;2.50;;;1.10;;
77078;SDS011;66004;55.096;38.760;2023-08-21T09:33:55;1.30;;;0.60;;
77078;SDS011;66004;55.096;38.760;2023-08-21T09:36:22;3.05;;;1.00;;
77078;SDS011;66004;55.096;38.760;2023-08-21T09:38:48;2.45;;;1.27;;
77078;SDS011;66004;55.096;38.760;2023-08-21T09:41:14;1.60;;;0.80;;
77078;SDS011;66004;55.096;38.760;2023-08-21T09:43:42;3.25;;;0.90;;
77078;SDS011;66004;55.096;38.760;2023-08-21T09:46:08;2.17;;;1.15;;
77078;SDS011;66004;55.096;38.760;2023-08-21T09:48:33;2.28;;;0.70;;
77078;SDS011;66004;55.096;38.760;2023-08-21T09:51:00;1.48;;;0.80;;
77078;SDS011;66004;55.096;38.760;2023-08-21T09:53:29;2.47;;;1.30;;
77078;SDS011;66004;55.096;38.760;2023-08-21T09:55:55;2.03;;;0.90;;
77078;SDS011;66004;55.096;38.760;2023-08-21T09:58:21;1.70;;;0.88;;
77078;SDS011;66004;55.096;38.760;2023-08-21T10:00:48;1.83;;;0.93;;
77078;SDS011;66004;55.096;38.760;2023-08-21T10:03:17;2.40;;;0.90;;
77078;SDS011;66004;55.096;38.760;2023-08-21T10:05:44;3.78;;;1.02;;
77078;SDS011;66004;55.096;38.760;2023-08-21T10:08:12;4.00;;;1.00;;
77078;SDS011;66004;55.096;38.760;2023-08-21T10:10:40;2.35;;;0.80;;
77078;SDS011;66004;55.096;38.760;2023-08-21T10:13:07;2.95;;;0.90;;
77078;SDS011;66004;55.096;38.760;2023-08-21T10:15:34;2.47;;;1.08;;
77078;SDS011;66004;55.096;38.760;2023-08-21T10:18:18;2.72;;;0.82;;
77078;SDS011;66004;55.096;38.760;2023-08-21T10:20:44;3.47;;;1.00;;
77078;SDS011;66004;55.096;38.760;2023-08-21T10:23:11;2.15;;;0.80;;
77078;SDS011;66004;55.096;38.760;2023-08-21T10:25:54;2.75;;;1.00;;
77078;SDS011;66004;55.096;38.760;2023-08-21T10:28:21;1.30;;;0.60;;
77078;SDS011;66004;55.096;38.760;2023-08-21T10:30:47;2.40;;;1.13;;
77078;SDS011;66004;55.096;38.760;2023-08-21T10:33:13;3.10;;;0.80;;
77078;SDS011;66004;55.096;38.760;2023-08-21T10:35:38;4.47;;;0.90;;
77078;SDS011;66004;55.096;38.760;2023-08-21T10:38:13;2.13;;;0.73;;
77078;SDS011;66004;55.096;38.760;2023-08-21T10:48:34;1.73;;;0.90;;
77078;SDS011;66004;55.096;38.760;2023-08-21T10:51:01;4.05;;;0.75;;
77078;SDS011;66004;55.096;38.760;2023-08-21T10:53:29;2.08;;;0.50;;
77078;SDS011;66004;55.096;38.760;2023-08-21T10:55:55;3.33;;;0.90;;
77078;SDS011;66004;55.096;38.760;2023-08-21T10:58:21;1.80;;;0.80;;
77078;SDS011;66004;55.096;38.760;2023-08-21T11:00:55;3.75;;;0.98;;
77078;SDS011;66004;55.096;38.760;2023-08-21T11:03:24;4.35;;;1.02;;
77078;SDS011;66004;55.096;38.760;2023-08-21T11:05:59;3.25;;;1.10;;
77078;SDS011;66004;55.096;38.760;2023-08-21T11:08:29;1.23;;;0.70;;
77078;SDS011;66004;55.096;38.760;2023-08-21T11:10:54;1.73;;;0.80;;
77078;SDS011;66004;55.096;38.760;2023-08-21T11:13:23;2.72;;;0.93;;
77078;SDS011;66004;55.096;38.760;2023-08-21T11:15:49;2.28;;;1.27;;
77078;SDS011;66004;55.096;38.760;2023-08-21T11:18:22;2.90;;;1.23;;
77078;SDS011;66004;55.096;38.760;2023-08-21T11:20:52;3.92;;;0.90;;
77078;SDS011;66004;55.096;38.760;2023-08-21T11:23:31;3.13;;;1.10;;
77078;SDS011;66004;55.096;38.760;2023-08-21T11:25:57;5.43;;;1.10;;
77078;SDS011;66004;55.096;38.760;2023-08-21T11:28:23;2.28;;;0.75;;
77078;SDS011;66004;55.096;38.760;2023-08-21T11:30:48;2.30;;;0.85;;
77078;SDS011;66004;55.096;38.760;2023-08-21T11:33:14;8.07;;;1.80;;
77078;SDS011;66004;55.096;38.760;2023-08-21T11:35:41;2.17;;;0.98;;
77078;SDS011;66004;55.096;38.760;2023-08-21T11:38:17;6.22;;;1.23;;
77078;SDS011;66004;55.096;38.760;2023-08-21T11:41:17;2.67;;;0.80;;
77078;SDS011;66004;55.096;38.760;2023-08-21T11:46:03;1.27;;;0.80;;
77078;SDS011;66004;55.096;38.760;2023-08-21T11:48:30;3.03;;;0.85;;
77078;SDS011;66004;55.096;38.760;2023-08-21T11:50:55;1.35;;;0.70;;
77078;SDS011;66004;55.096;38.760;2023-08-21T11:53:31;1.45;;;0.93;;
77078;SDS011;66004;55.096;38.760;2023-08-21T11:55:58;3.78;;;0.90;;
77078;SDS011;66004;55.096;38.760;2023-08-21T11:58:26;1.33;;;0.80;;
77078;SDS011;66004;55.096;38.760;2023-08-21T12:00:53;1.45;;;1.00;;
77078;SDS011;66004;55.096;38.760;2023-08-21T12:03:18;3.33;;;1.00;;
77078;SDS011;66004;55.096;38.760;2023-08-21T12:05:44;3.20;;;0.90;;
77078;SDS011;66004;55.096;38.760;2023-08-21T12:08:10;5.22;;;0.93;;
77078;SDS011;66004;55.096;38.760;2023-08-21T12:10:35;2.13;;;0.73;;
77078;SDS011;66004;55.096;38.760;2023-08-21T12:13:01;1.27;;;0.93;;
77078;SDS011;66004;55.096;38.760;2023-08-21T12:15:27;2.55;;;1.08;;
77078;SDS011;66004;55.096;38.760;2023-08-21T12:17:52;3.42;;;1.10;;
77078;SDS011;66004;55.096;38.760;2023-08-21T12:20:18;2.30;;;1.10;;
77078;SDS011;66004;55.096;38.760;2023-08-21T12:22:44;3.47;;;1.00;;
77078;SDS011;66004;55.096;38.760;2023-08-21T12:25:10;3.08;;;0.95;;
77078;SDS011;66004;55.096;38.760;2023-08-21T12:27:36;2.45;;;1.02;;
77078;SDS011;66004;55.096;38.760;2023-08-21T12:30:02;1.20;;;0.70;;
77078;SDS011;66004;55.096;38.760;2023-08-21T12:32:29;3.60;;;0.85;;
77078;SDS011;66004;55.096;38.760;2023-08-21T12:34:54;1.33;;;0.60;;
77078;SDS011;66004;55.096;38.760;2023-08-21T12:37:19;3.08;;;1.08;;
77078;SDS011;66004;55.096;38.760;2023-08-21T12:39:45;2.33;;;0.90;;
77078;SDS011;66004;55.096;38.760;2023-08-21T12:42:11;3.45;;;0.95;;
77078;SDS011;66004;55.096;38.760;2023-08-21T12:44:36;3.08;;;0.90;;
77078;SDS011;66004;55.096;38.760;2023-08-21T12:47:02;1.85;;;1.00;;
77078;SDS011;66004;55.096;38.760;2023-08-21T12:49:27;2.85;;;1.00;;
77078;SDS011;66004;55.096;38.760;2023-08-21T12:51:53;2.78;;;1.05;;
77078;SDS011;66004;55.096;38.760;2023-08-21T12:54:20;2.70;;;1.20;;
77078;SDS011;66004;55.096;38.760;2023-08-21T12:56:46;6.95;;;0.95;;
77078;SDS011;66004;55.096;38.760;2023-08-21T12:59:12;2.83;;;1.10;;
77078;SDS011;66004;55.096;38.760;2023-08-21T13:01:38;1.33;;;0.70;;
77078;SDS011;66004;55.096;38.760;2023-08-21T13:04:04;1.25;;;0.82;;
77078;SDS011;66004;55.096;38.760;2023-08-21T13:06:29;2.60;;;1.10;;
77078;SDS011;66004;55.096;38.760;2023-08-21T13:08:55;2.40;;;1.10;;
77078;SDS011;66004;55.096;38.760;2023-08-21T13:11:20;2.70;;;1.00;;
77078;SDS011;66004;55.096;38.760;2023-08-21T13:13:46;2.58;;;0.85;;
77078;SDS011;66004;55.096;38.760;2023-08-21T13:16:13;4.88;;;1.15;;
77078;SDS011;66004;55.096;38.760;2023-08-21T13:18:39;2.70;;;0.98;;
77078;SDS011;66004;55.096;38.760;2023-08-21T13:21:05;3.60;;;0.82;;
77078;SDS011;66004;55.096;38.760;2023-08-21T13:23:30;2.20;;;0.93;;
77078;SDS011;66004;55.096;38.760;2023-08-21T13:25:56;9.77;;;1.38;;
77078;SDS011;66004;55.096;38.760;2023-08-21T13:28:23;5.85;;;1.10;;
77078;SDS011;66004;55.096;38.760;2023-08-21T13:30:48;1.92;;;0.93;;
77078;SDS011;66004;55.096;38.760;2023-08-21T13:33:14;2.70;;;1.20;;
77078;SDS011;66004;55.096;38.760;2023-08-21T13:35:40;4.20;;;0.93;;
77078;SDS011;66004;55.096;38.760;2023-08-21T13:38:06;2.13;;;0.90;;
77078;SDS011;66004;55.096;38.760;2023-08-21T13:40:33;3.50;;;1.33;;
77078;SDS011;66004;55.096;38.760;2023-08-21T13:42:59;3.05;;;1.13;;
77078;SDS011;66004;55.096;38.760;2023-08-21T13:45:25;1.98;;;0.80;;
77078;SDS011;66004;55.096;38.760;2023-08-21T13:47:50;4.43;;;1.02;;
77078;SDS011;66004;55.096;38.760;2023-08-21T13:50:17;1.85;;;1.02;;
77078;SDS011;66004;55.096;38.760;2023-08-21T13:52:44;4.10;;;1.08;;
77078;SDS011;66004;55.096;38.760;2023-08-21T13:55:12;3.72;;;1.10;;
77078;SDS011;66004;55.096;38.760;2023-08-21T13:57:38;2.50;;;1.52;;
77078;SDS011;66004;55.096;38.760;2023-08-21T14:00:04;3.30;;;1.40;;
77078;SDS011;66004;55.096;38.760;2023-08-21T14:02:35;4.13;;;1.77;;
77078;SDS011;66004;55.096;38.760;2023-08-21T14:05:01;3.08;;;1.27;;
77078;SDS011;66004;55.096;38.760;2023-08-21T14:07:31;6.63;;;1.40;;
77078;SDS011;66004;55.096;38.760;2023-08-21T14:09:57;2.35;;;0.98;;
77078;SDS011;66004;55.096;38.760;2023-08-21T14:12:23;3.13;;;1.10;;
77078;SDS011;66004;55.096;38.760;2023-08-21T14:14:48;2.83;;;1.10;;
77078;SDS011;66004;55.096;38.760;2023-08-21T14:17:14;5.20;;;1.17;;
77078;SDS011;66004;55.096;38.760;2023-08-21T14:19:41;2.03;;;1.17;;
77078;SDS011;66004;55.096;38.760;2023-08-21T14:22:06;8.77;;;1.30;;
77078;SDS011;66004;55.096;38.760;2023-08-21T14:24:32;3.28;;;1.13;;
77078;SDS011;66004;55.096;38.760;2023-08-21T14:26:58;1.52;;;0.93;;
77078;SDS011;66004;55.096;38.760;2023-08-21T14:29:23;2.03;;;0.93;;
77078;SDS011;66004;55.096;38.760;2023-08-21T14:31:49;1.77;;;1.13;;
77078;SDS011;66004;55.096;38.760;2023-08-21T14:34:18;2.00;;;1.35;;
77078;SDS011;66004;55.096;38.760;2023-08-21T14:36:44;1.92;;;1.33;;
77078;SDS011;66004;55.096;38.760;2023-08-21T14:39:09;7.22;;;1.60;;
77078;SDS011;66004;55.096;38.760;2023-08-21T14:41:36;3.45;;;1.35;;
77078;SDS011;66004;55.096;38.760;2023-08-21T14:44:03;2.67;;;1.70;;
77078;SDS011;66004;55.096;38.760;2023-08-21T14:46:29;3.42;;;1.60;;
77078;SDS011;66004;55.096;38.760;2023-08-21T14:48:54;4.57;;;1.20;;
77078;SDS011;66004;55.096;38.760;2023-08-21T14:51:20;5.05;;;1.63;;
77078;SDS011;66004;55.096;38.760;2023-08-21T14:53:45;3.22;;;1.40;;
77078;SDS011;66004;55.096;38.760;2023-08-21T14:56:10;2.20;;;1.20;;
77078;SDS011;66004;55.096;38.760;2023-08-21T14:58:36;4.78;;;1.48;;
77078;SDS011;66004;55.096;38.760;2023-08-21T15:01:01;2.67;;;1.17;;
77078;SDS011;66004;55.096;38.760;2023-08-21T15:03:28;3.88;;;1.40;;
77078;SDS011;66004;55.096;38.760;2023-08-21T15:05:53;3.03;;;1.20;;
77078;SDS011;66004;55.096;38.760;2023-08-21T15:08:19;3.65;;;1.20;;
77078;SDS011;66004;55.096;38.760;2023-08-21T15:10:44;4.75;;;2.30;;
77078;SDS011;66004;55.096;38.760;2023-08-21T15:13:10;8.27;;;3.00;;
77078;SDS011;66004;55.096;38.760;2023-08-21T15:15:35;5.35;;;1.80;;
77078;SDS011;66004;55.096;38.760;2023-08-21T15:18:01;4.32;;;2.28;;
77078;SDS011;66004;55.096;38.760;2023-08-21T15:20:26;8.18;;;4.03;;
77078;SDS011;66004;55.096;38.760;2023-08-21T15:22:52;9.23;;;3.88;;
77078;SDS011;66004;55.096;38.760;2023-08-21T15:25:17;4.65;;;2.00;;
77078;SDS011;66004;55.096;38.760;2023-08-21T15:27:43;6.13;;;1.70;;
77078;SDS011;66004;55.096;38.760;2023-08-21T15:30:08;3.97;;;1.85;;
77078;SDS011;66004;55.096;38.760;2023-08-21T15:32:34;6.05;;;2.25;;
77078;SDS011;66004;55.096;38.760;2023-08-21T15:35:00;2.90;;;1.38;;
77078;SDS011;66004;55.096;38.760;2023-08-21T15:37:26;3.30;;;1.63;;
77078;SDS011;66004;55.096;38.760;2023-08-21T15:39:52;6.60;;;1.58;;
77078;SDS011;66004;55.096;38.760;2023-08-21T15:42:17;6.75;;;1.52;;
77078;SDS011;66004;55.096;38.760;2023-08-21T15:44:43;5.55;;;1.60;;
77078;SDS011;66004;55.096;38.760;2023-08-21T15:47:08;6.35;;;2.08;;
77078;SDS011;66004;55.096;38.760;2023-08-21T15:49:34;6.15;;;1.38;;
77078;SDS011;66004;55.096;38.760;2023-08-21T15:52:02;3.08;;;1.40;;
77078;SDS011;66004;55.096;38.760;2023-08-21T15:54:31;3.13;;;1.77;;
77078;SDS011;66004;55.096;38.760;2023-08-21T15:56:58;4.45;;;1.60;;
77078;SDS011;66004;55.096;38.760;2023-08-21T15:59:24;5.05;;;1.50;;
77078;SDS011;66004;55.096;38.760;2023-08-21T16:01:50;6.22;;;2.05;;
77078;SDS011;66004;55.096;38.760;2023-08-21T16:04:17;9.65;;;1.88;;
77078;SDS011;66004;55.096;38.760;2023-08-21T16:06:43;6.95;;;1.50;;
77078;SDS011;66004;55.096;38.760;2023-08-21T16:09:08;4.80;;;1.40;;
77078;SDS011;66004;55.096;38.760;2023-08-21T16:11:34;3.50;;;1.50;;
77078;SDS011;66004;55.096;38.760;2023-08-21T16:13:59;2.47;;;1.17;;